sensor_id;sensor_type;location;lat;lon;timestamp;pressure;altitude;pressure_sealevel;temperature;humidity
20119;BME280;10220;42.716;23.306;2023-03-03T00:01:27;95296.84;;;4.91;100.00
20119;BME280;10220;42.716;23.306;2023-03-03T00:04:09;95278.25;;;4.81;100.00
20119;BME280;10220;42.716;23.306;2023-03-03T00:06:37;95266.19;;;4.35;100.00
20119;BME280;10220;42.716;23.306;2023-03-03T00:09:02;95275.91;;;4.64;100.00
20119;BME280;10220;42.716;23.306;2023-03-03T00:11:28;95287.09;;;4.70;100.00
20119;BME280;10220;42.716;23.306;2023-03-03T00:13:55;95332.91;;;4.89;100.00
20119;BME280;10220;42.716;23.306;2023-03-03T00:16:34;95307.09;;;4.91;100.00
20119;BME280;10220;42.716;23.306;2023-03-03T00:19:01;95287.06;;;4.78;100.00
20119;BME280;10220;42.716;23.306;2023-03-03T00:21:34;95323.25;;;4.99;100.00
20119;BME280;10220;42.716;23.306;2023-03-03T00:29:35;95304.78;;;5.04;100.00
20119;BME280;10220;42.716;23.306;2023-03-03T00:34:35;95297.66;;;4.83;100.00
20119;BME280;10220;42.716;23.306;2023-03-03T00:37:01;95294.88;;;4.93;100.00
20119;BME280;10220;42.716;23.306;2023-03-03T00:39:35;95290.94;;;4.74;100.00
20119;BME280;10220;42.716;23.306;2023-03-03T00:42:01;95284.00;;;4.83;100.00
20119;BME280;10220;42.716;23.306;2023-03-03T00:44:37;95273.56;;;4.92;100.00
20119;BME280;10220;42.716;23.306;2023-03-03T00:49:38;95289.13;;;4.91;100.00
20119;BME280;10220;42.716;23.306;2023-03-03T00:52:16;95285.13;;;4.88;100.00
20119;BME280;10220;42.716;23.306;2023-03-03T00:54:41;95254.19;;;4.90;100.00
20119;BME280;10220;42.716;23.306;2023-03-03T00:57:07;95270.28;;;5.06;100.00
20119;BME280;10220;42.716;23.306;2023-03-03T00:59:33;95256.53;;;4.99;100.00
20119;BME280;10220;42.716;23.306;2023-03-03T01:01:58;95261.19;;;4.96;100.00
20119;BME280;10220;42.716;23.306;2023-03-03T01:04:23;95210.06;;;4.56;100.00
20119;BME280;10220;42.716;23.306;2023-03-03T01:06:49;95235.63;;;4.72;100.00
20119;BME280;10220;42.716;23.306;2023-03-03T01:09:14;95243.16;;;4.73;100.00
20119;BME280;10220;42.716;23.306;2023-03-03T01:11:40;95247.44;;;4.89;100.00
20119;BME280;10220;42.716;23.306;2023-03-03T01:14:05;95256.59;;;4.83;100.00
20119;BME280;10220;42.716;23.306;2023-03-03T01:16:34;95240.47;;;4.67;100.00
20119;BME280;10220;42.716;23.306;2023-03-03T01:18:59;95244.50;;;4.62;100.00
20119;BME280;10220;42.716;23.306;2023-03-03T01:21:25;95246.75;;;4.57;100.00
20119;BME280;10220;42.716;23.306;2023-03-03T01:23:51;95252.19;;;4.62;100.00
20119;BME280;10220;42.716;23.306;2023-03-03T01:26:16;95206.13;;;4.38;100.00
20119;BME280;10220;42.716;23.306;2023-03-03T01:28:42;95249.38;;;4.79;100.00
20119;BME280;10220;42.716;23.306;2023-03-03T01:31:07;95251.22;;;4.63;100.00
20119;BME280;10220;42.716;23.306;2023-03-03T01:33:34;95220.84;;;4.36;100.00
20119;BME280;10220;42.716;23.306;2023-03-03T01:36:02;95236.47;;;4.64;100.00
20119;BME280;10220;42.716;23.306;2023-03-03T01:38:34;95215.06;;;4.42;100.00
20119;BME280;10220;42.716;23.306;2023-03-03T01:41:01;95195.56;;;4.25;100.00
20119;BME280;10220;42.716;23.306;2023-03-03T01:43:28;95229.63;;;4.57;100.00
20119;BME280;10220;42.716;23.306;2023-03-03T01:48:37;95232.75;;;4.67;100.00
20119;BME280;10220;42.716;23.306;2023-03-03T01:51:18;95224.63;;;4.64;100.00
20119;BME280;10220;42.716;23.306;2023-03-03T01:53:53;95238.25;;;4.56;100.00
20119;BME280;10220;42.716;23.306;2023-03-03T01:56:40;95239.97;;;4.71;100.00
20119;BME280;10220;42.716;23.306;2023-03-03T01:59:10;95233.44;;;4.53;100.00
20119;BME280;10220;42.716;23.306;2023-03-03T02:01:51;95224.78;;;4.54;100.00
20119;BME280;10220;42.716;23.306;2023-03-03T02:04:20;95230.88;;;4.61;100.00
20119;BME280;10220;42.716;23.306;2023-03-03T02:06:56;95236.59;;;4.71;100.00
20119;BME280;10220;42.716;23.306;2023-03-03T02:09:31;95196.44;;;4.48;100.00
20119;BME280;10220;42.716;23.306;2023-03-03T02:12:04;95213.44;;;4.49;100.00
20119;BME280;10220;42.716;23.306;2023-03-03T02:14:32;95227.34;;;4.54;100.00
20119;BME280;10220;42.716;23.306;2023-03-03T02:17:00;95226.03;;;4.66;100.00
20119;BME280;10220;42.716;23.306;2023-03-03T02:22:16;95222.94;;;4.40;100.00
20119;BME280;10220;42.716;23.306;2023-03-03T02:24:55;95237.16;;;4.51;100.00
20119;BME280;10220;42.716;23.306;2023-03-03T02:27:21;95232.47;;;4.54;100.00
20119;BME280;10220;42.716;23.306;2023-03-03T02:29:47;95234.41;;;4.60;100.00
20119;BME280;10220;42.716;23.306;2023-03-03T02:32:12;95198.00;;;4.18;100.00
20119;BME280;10220;42.716;23.306;2023-03-03T02:34:49;95233.09;;;4.64;100.00
20119;BME280;10220;42.716;23.306;2023-03-03T02:37:15;95209.91;;;4.50;100.00
20119;BME280;10220;42.716;23.306;2023-03-03T02:39:42;95234.56;;;4.59;100.00
20119;BME280;10220;42.716;23.306;2023-03-03T02:42:26;95247.53;;;4.65;100.00
20119;BME280;10220;42.716;23.306;2023-03-03T02:44:53;95235.19;;;4.61;100.00
20119;BME280;10220;42.716;23.306;2023-03-03T02:47:19;95209.91;;;4.50;100.00
20119;BME280;10220;42.716;23.306;2023-03-03T02:49:44;95210.69;;;4.50;100.00
20119;BME280;10220;42.716;23.306;2023-03-03T02:52:11;95226.75;;;4.52;100.00
20119;BME280;10220;42.716;23.306;2023-03-03T02:54:37;95243.84;;;4.67;100.00
20119;BME280;10220;42.716;23.306;2023-03-03T02:57:03;95241.59;;;4.64;100.00
20119;BME280;10220;42.716;23.306;2023-03-03T02:59:29;95203.00;;;4.50;100.00
20119;BME280;10220;42.716;23.306;2023-03-03T03:01:55;95203.97;;;4.57;100.00
20119;BME280;10220;42.716;23.306;2023-03-03T03:04:23;95236.91;;;4.76;100.00
20119;BME280;10220;42.716;23.306;2023-03-03T03:06:49;95195.66;;;4.47;100.00
20119;BME280;10220;42.716;23.306;2023-03-03T03:09:16;95210.09;;;4.48;100.00
20119;BME280;10220;42.716;23.306;2023-03-03T03:11:41;95223.19;;;4.61;100.00
20119;BME280;10220;42.716;23.306;2023-03-03T03:14:08;95212.09;;;4.61;100.00
20119;BME280;10220;42.716;23.306;2023-03-03T03:16:34;95213.06;;;4.67;100.00
20119;BME280;10220;42.716;23.306;2023-03-03T03:19:04;95221.78;;;4.35;100.00
20119;BME280;10220;42.716;23.306;2023-03-03T03:21:30;95219.66;;;4.54;100.00
20119;BME280;10220;42.716;23.306;2023-03-03T03:23:57;95211.97;;;4.54;100.00
20119;BME280;10220;42.716;23.306;2023-03-03T03:26:23;95216.47;;;4.52;100.00
20119;BME280;10220;42.716;23.306;2023-03-03T03:28:50;95204.53;;;4.29;100.00
20119;BME280;10220;42.716;23.306;2023-03-03T03:31:17;95223.19;;;4.53;100.00
20119;BME280;10220;42.716;23.306;2023-03-03T03:33:43;95217.81;;;4.40;100.00
20119;BME280;10220;42.716;23.306;2023-03-03T03:36:09;95210.53;;;4.52;100.00
20119;BME280;10220;42.716;23.306;2023-03-03T03:38:35;95206.94;;;4.30;100.00
20119;BME280;10220;42.716;23.306;2023-03-03T03:41:03;95187.03;;;4.32;100.00
20119;BME280;10220;42.716;23.306;2023-03-03T03:43:29;95159.69;;;4.25;100.00
20119;BME280;10220;42.716;23.306;2023-03-03T03:45:55;95190.25;;;4.34;100.00
20119;BME280;10220;42.716;23.306;2023-03-03T03:48:20;95211.84;;;4.48;100.00
20119;BME280;10220;42.716;23.306;2023-03-03T03:50:47;95180.16;;;4.33;100.00
20119;BME280;10220;42.716;23.306;2023-03-03T03:53:12;95169.31;;;4.15;100.00
20119;BME280;10220;42.716;23.306;2023-03-03T03:55:38;95200.84;;;4.31;100.00
20119;BME280;10220;42.716;23.306;2023-03-03T03:58:03;95214.50;;;4.16;100.00
20119;BME280;10220;42.716;23.306;2023-03-03T04:00:29;95155.78;;;3.83;100.00
20119;BME280;10220;42.716;23.306;2023-03-03T04:02:54;95164.41;;;3.98;100.00
20119;BME280;10220;42.716;23.306;2023-03-03T04:05:19;95205.50;;;4.20;100.00
20119;BME280;10220;42.716;23.306;2023-03-03T04:07:45;95191.75;;;4.13;100.00
20119;BME280;10220;42.716;23.306;2023-03-03T04:10:10;95182.16;;;4.07;100.00
20119;BME280;10220;42.716;23.306;2023-03-03T04:12:36;95153.06;;;3.76;100.00
20119;BME280;10220;42.716;23.306;2023-03-03T04:15:09;95205.72;;;4.03;100.00
20119;BME280;10220;42.716;23.306;2023-03-03T04:17:35;95202.31;;;4.10;100.00
20119;BME280;10220;42.716;23.306;2023-03-03T04:20:00;95161.22;;;3.80;100.00
20119;BME280;10220;42.716;23.306;2023-03-03T04:22:27;95172.38;;;4.10;100.00
20119;BME280;10220;42.716;23.306;2023-03-03T04:24:54;95194.47;;;4.19;100.00
20119;BME280;10220;42.716;23.306;2023-03-03T04:27:19;95191.13;;;4.03;100.00
20119;BME280;10220;42.716;23.306;2023-03-03T04:29:45;95192.72;;;4.12;100.00
20119;BME280;10220;42.716;23.306;2023-03-03T04:32:10;95190.97;;;4.05;100.00
20119;BME280;10220;42.716;23.306;2023-03-03T04:34:36;95201.00;;;4.22;100.00
20119;BME280;10220;42.716;23.306;2023-03-03T04:37:01;95191.63;;;4.07;100.00
20119;BME280;10220;42.716;23.306;2023-03-03T04:39:27;95160.41;;;3.95;100.00
20119;BME280;10220;42.716;23.306;2023-03-03T04:41:53;95180.34;;;4.15;100.00
20119;BME280;10220;42.716;23.306;2023-03-03T04:44:19;95188.06;;;4.23;100.00
20119;BME280;10220;42.716;23.306;2023-03-03T04:46:44;95187.03;;;4.32;100.00
20119;BME280;10220;42.716;23.306;2023-03-03T04:49:09;95194.91;;;4.31;100.00
20119;BME280;10220;42.716;23.306;2023-03-03T04:51:35;95190.41;;;4.33;100.00
20119;BME280;10220;42.716;23.306;2023-03-03T04:54:00;95146.59;;;4.12;100.00
20119;BME280;10220;42.716;23.306;2023-03-03T04:56:29;95183.22;;;4.28;100.00
20119;BME280;10220;42.716;23.306;2023-03-03T04:58:55;95174.69;;;4.36;100.00
20119;BME280;10220;42.716;23.306;2023-03-03T05:01:21;95188.91;;;4.54;100.00
20119;BME280;10220;42.716;23.306;2023-03-03T05:03:46;95190.69;;;4.46;100.00
20119;BME280;10220;42.716;23.306;2023-03-03T05:06:12;95183.63;;;4.48;100.00
20119;BME280;10220;42.716;23.306;2023-03-03T05:08:37;95186.16;;;4.56;100.00
20119;BME280;10220;42.716;23.306;2023-03-03T05:11:03;95203.84;;;4.35;100.00
20119;BME280;10220;42.716;23.306;2023-03-03T05:13:29;95187.75;;;4.18;100.00
20119;BME280;10220;42.716;23.306;2023-03-03T05:15:55;95187.19;;;4.47;100.00
20119;BME280;10220;42.716;23.306;2023-03-03T05:18:25;95185.81;;;4.66;100.00
20119;BME280;10220;42.716;23.306;2023-03-03T05:20:51;95162.06;;;4.34;100.00
20119;BME280;10220;42.716;23.306;2023-03-03T05:23:17;95202.16;;;4.65;100.00
20119;BME280;10220;42.716;23.306;2023-03-03T05:25:44;95155.66;;;4.30;100.00
20119;BME280;10220;42.716;23.306;2023-03-03T05:28:11;95199.38;;;4.75;100.00
20119;BME280;10220;42.716;23.306;2023-03-03T05:30:36;95209.19;;;4.71;100.00
20119;BME280;10220;42.716;23.306;2023-03-03T05:33:03;95202.03;;;4.59;100.00
20119;BME280;10220;42.716;23.306;2023-03-03T05:35:29;95207.34;;;4.50;100.00
20119;BME280;10220;42.716;23.306;2023-03-03T05:37:57;95206.66;;;4.56;100.00
20119;BME280;10220;42.716;23.306;2023-03-03T05:40:27;95202.53;;;4.55;100.00
20119;BME280;10220;42.716;23.306;2023-03-03T05:42:52;95200.56;;;4.64;100.00
20119;BME280;10220;42.716;23.306;2023-03-03T05:45:18;95180.00;;;4.34;100.00
20119;BME280;10220;42.716;23.306;2023-03-03T05:47:46;95202.06;;;4.51;100.00
20119;BME280;10220;42.716;23.306;2023-03-03T05:50:12;95208.81;;;4.44;100.00
20119;BME280;10220;42.716;23.306;2023-03-03T05:52:37;95205.09;;;4.55;100.00
20119;BME280;10220;42.716;23.306;2023-03-03T05:55:03;95216.16;;;4.47;100.00
20119;BME280;10220;42.716;23.306;2023-03-03T05:57:29;95197.28;;;4.32;100.00
20119;BME280;10220;42.716;23.306;2023-03-03T05:59:57;95203.22;;;4.41;100.00
20119;BME280;10220;42.716;23.306;2023-03-03T06:02:26;95223.53;;;4.50;100.00
20119;BME280;10220;42.716;23.306;2023-03-03T06:04:51;95206.88;;;4.46;100.00
20119;BME280;10220;42.716;23.306;2023-03-03T06:07:17;95180.66;;;4.20;100.00
20119;BME280;10220;42.716;23.306;2023-03-03T06:09:42;95192.03;;;4.34;100.00
20119;BME280;10220;42.716;23.306;2023-03-03T06:12:07;95202.84;;;4.52;100.00
20119;BME280;10220;42.716;23.306;2023-03-03T06:14:33;95221.09;;;4.57;100.00
20119;BME280;10220;42.716;23.306;2023-03-03T06:16:58;95208.59;;;4.62;100.00
20119;BME280;10220;42.716;23.306;2023-03-03T06:19:24;95211.03;;;4.85;100.00
20119;BME280;10220;42.716;23.306;2023-03-03T06:21:49;95214.34;;;4.71;100.00
20119;BME280;10220;42.716;23.306;2023-03-03T06:24:15;95208.94;;;4.59;100.00
20119;BME280;10220;42.716;23.306;2023-03-03T06:26:40;95206.03;;;4.62;100.00
20119;BME280;10220;42.716;23.306;2023-03-03T06:29:06;95206.34;;;4.66;100.00
20119;BME280;10220;42.716;23.306;2023-03-03T06:31:31;95198.03;;;4.57;100.00
20119;BME280;10220;42.716;23.306;2023-03-03T06:33:57;95224.06;;;4.76;100.00
20119;BME280;10220;42.716;23.306;2023-03-03T06:36:22;95211.16;;;4.62;100.00
20119;BME280;10220;42.716;23.306;2023-03-03T06:38:50;95214.81;;;4.67;100.00
20119;BME280;10220;42.716;23.306;2023-03-03T06:41:15;95222.31;;;4.76;100.00
20119;BME280;10220;42.716;23.306;2023-03-03T06:43:40;95215.41;;;4.77;100.00
20119;BME280;10220;42.716;23.306;2023-03-03T06:46:06;95225.13;;;4.51;100.00
20119;BME280;10220;42.716;23.306;2023-03-03T06:48:32;95227.84;;;4.58;100.00
20119;BME280;10220;42.716;23.306;2023-03-03T06:50:59;95232.47;;;4.54;100.00
20119;BME280;10220;42.716;23.306;2023-03-03T06:53:26;95229.75;;;4.56;100.00
20119;BME280;10220;42.716;23.306;2023-03-03T06:55:54;95239.84;;;4.65;100.00
20119;BME280;10220;42.716;23.306;2023-03-03T06:58:20;95237.00;;;4.52;100.00
20119;BME280;10220;42.716;23.306;2023-03-03T07:01:10;95231.75;;;4.84;100.00
20119;BME280;10220;42.716;23.306;2023-03-03T07:03:37;95226.31;;;4.79;100.00
20119;BME280;10220;42.716;23.306;2023-03-03T07:06:23;95220.06;;;4.73;100.00
20119;BME280;10220;42.716;23.306;2023-03-03T07:08:51;95236.22;;;4.90;100.00
20119;BME280;10220;42.716;23.306;2023-03-03T07:11:47;95233.00;;;4.88;100.00
20119;BME280;10220;42.716;23.306;2023-03-03T07:14:18;95237.59;;;5.00;100.00
20119;BME280;10220;42.716;23.306;2023-03-03T07:16:44;95210.06;;;4.56;100.00
20119;BME280;10220;42.716;23.306;2023-03-03T07:19:18;95226.00;;;4.82;100.00
20119;BME280;10220;42.716;23.306;2023-03-03T07:21:45;95224.22;;;4.82;100.00
20119;BME280;10220;42.716;23.306;2023-03-03T07:24:28;95224.03;;;4.84;100.00
20119;BME280;10220;42.716;23.306;2023-03-03T07:26:59;95232.88;;;4.81;100.00
20119;BME280;10220;42.716;23.306;2023-03-03T07:29:35;95237.00;;;4.90;100.00
20119;BME280;10220;42.716;23.306;2023-03-03T07:32:02;95226.09;;;4.96;100.00
20119;BME280;10220;42.716;23.306;2023-03-03T07:34:43;95224.38;;;5.11;100.00
20119;BME280;10220;42.716;23.306;2023-03-03T07:37:36;95224.56;;;5.10;100.00
20119;BME280;10220;42.716;23.306;2023-03-03T07:42:50;95222.28;;;5.15;100.00
20119;BME280;10220;42.716;23.306;2023-03-03T07:45:30;95239.09;;;4.95;100.00
20119;BME280;10220;42.716;23.306;2023-03-03T07:50:42;95229.91;;;5.53;100.00
20119;BME280;10220;42.716;23.306;2023-03-03T07:53:26;95214.09;;;5.41;100.00
20119;BME280;10220;42.716;23.306;2023-03-03T07:55:52;95200.09;;;5.22;100.00
20119;BME280;10220;42.716;23.306;2023-03-03T07:58:39;95227.97;;;5.32;100.00
20119;BME280;10220;42.716;23.306;2023-03-03T08:03:52;95220.53;;;5.37;100.00
20119;BME280;10220;42.716;23.306;2023-03-03T08:06:43;95214.22;;;5.48;100.00
20119;BME280;10220;42.716;23.306;2023-03-03T08:11:35;95196.91;;;5.64;100.00
20119;BME280;10220;42.716;23.306;2023-03-03T08:14:09;95219.66;;;5.97;100.00
20119;BME280;10220;42.716;23.306;2023-03-03T08:16:37;95218.34;;;5.79;100.00
20119;BME280;10220;42.716;23.306;2023-03-03T08:19:04;95211.94;;;5.97;100.00
20119;BME280;10220;42.716;23.306;2023-03-03T08:21:30;95216.28;;;5.75;100.00
20119;BME280;10220;42.716;23.306;2023-03-03T08:24:00;95216.16;;;5.68;100.00
20119;BME280;10220;42.716;23.306;2023-03-03T08:26:26;95203.09;;;5.33;100.00
20119;BME280;10220;42.716;23.306;2023-03-03T08:28:52;95181.59;;;5.04;100.00
20119;BME280;10220;42.716;23.306;2023-03-03T08:31:23;95179.84;;;5.04;100.00
20119;BME280;10220;42.716;23.306;2023-03-03T08:33:49;95208.25;;;5.03;100.00
20119;BME280;10220;42.716;23.306;2023-03-03T08:36:14;95215.38;;;5.15;100.00
20119;BME280;10220;42.716;23.306;2023-03-03T08:38:47;95201.41;;;5.18;100.00
20119;BME280;10220;42.716;23.306;2023-03-03T08:41:13;95208.41;;;5.31;100.00
20119;BME280;10220;42.716;23.306;2023-03-03T08:43:38;95200.06;;;5.29;100.00
20119;BME280;10220;42.716;23.306;2023-03-03T08:46:09;95174.72;;;5.26;100.00
20119;BME280;10220;42.716;23.306;2023-03-03T08:48:44;95143.97;;;5.19;100.00
20119;BME280;10220;42.716;23.306;2023-03-03T08:54:31;95147.34;;;5.19;100.00
20119;BME280;10220;42.716;23.306;2023-03-03T08:56:56;95230.38;;;5.56;100.00
20119;BME280;10220;42.716;23.306;2023-03-03T08:59:22;95185.97;;;5.48;100.00
20119;BME280;10220;42.716;23.306;2023-03-03T09:01:50;95188.75;;;5.38;100.00
20119;BME280;10220;42.716;23.306;2023-03-03T09:04:15;95215.88;;;5.63;100.00
20119;BME280;10220;42.716;23.306;2023-03-03T09:06:41;95193.34;;;5.51;100.00
20119;BME280;10220;42.716;23.306;2023-03-03T09:09:06;95208.22;;;5.55;100.00
20119;BME280;10220;42.716;23.306;2023-03-03T09:11:34;95157.59;;;5.41;100.00
20119;BME280;10220;42.716;23.306;2023-03-03T09:14:11;95221.13;;;5.47;100.00
20119;BME280;10220;42.716;23.306;2023-03-03T09:16:40;95214.13;;;5.64;100.00
20119;BME280;10220;42.716;23.306;2023-03-03T09:19:26;95188.09;;;5.44;100.00
20119;BME280;10220;42.716;23.306;2023-03-03T09:21:56;95215.63;;;5.81;100.00
20119;BME280;10220;42.716;23.306;2023-03-03T09:24:30;95178.94;;;5.64;100.00
20119;BME280;10220;42.716;23.306;2023-03-03T09:27:00;95207.75;;;5.82;100.00
20119;BME280;10220;42.716;23.306;2023-03-03T09:29:30;95177.34;;;5.63;100.00
20119;BME280;10220;42.716;23.306;2023-03-03T09:32:21;95208.84;;;6.02;100.00
20119;BME280;10220;42.716;23.306;2023-03-03T09:34:44;95202.69;;;5.88;100.00
20119;BME280;10220;42.716;23.306;2023-03-03T09:39:42;95206.28;;;6.16;100.00
20119;BME280;10220;42.716;23.306;2023-03-03T09:55:54;95211.38;;;6.39;100.00
20119;BME280;10220;42.716;23.306;2023-03-03T10:18:18;95179.88;;;8.19;100.00
20119;BME280;10220;42.716;23.306;2023-03-03T10:29:05;95189.19;;;8.20;100.00
20119;BME280;10220;42.716;23.306;2023-03-03T10:31:54;95189.66;;;8.97;100.00
20119;BME280;10220;42.716;23.306;2023-03-03T10:37:09;95187.25;;;8.96;100.00
20119;BME280;10220;42.716;23.306;2023-03-03T10:40:12;95188.09;;;8.29;100.00
20119;BME280;10220;42.716;23.306;2023-03-03T10:48:30;95179.75;;;8.67;100.00
20119;BME280;10220;42.716;23.306;2023-03-03T10:51:14;95178.22;;;8.39;100.00
20119;BME280;10220;42.716;23.306;2023-03-03T10:56:39;95165.75;;;8.82;100.00
20119;BME280;10220;42.716;23.306;2023-03-03T11:02:08;95175.97;;;8.29;100.00
20119;BME280;10220;42.716;23.306;2023-03-03T11:10:12;95165.38;;;8.52;100.00
20119;BME280;10220;42.716;23.306;2023-03-03T11:15:40;95161.13;;;7.83;100.00
20119;BME280;10220;42.716;23.306;2023-03-03T11:25:22;95107.84;;;7.69;100.00
20119;BME280;10220;42.716;23.306;2023-03-03T11:35:48;95148.19;;;8.65;100.00
20119;BME280;10220;42.716;23.306;2023-03-03T11:38:47;95140.59;;;7.96;100.00
20119;BME280;10220;42.716;23.306;2023-03-03T11:44:28;95144.56;;;7.09;100.00
20119;BME280;10220;42.716;23.306;2023-03-03T11:47:30;95124.38;;;7.12;100.00
20119;BME280;10220;42.716;23.306;2023-03-03T11:49:59;95125.09;;;7.21;100.00
20119;BME280;10220;42.716;23.306;2023-03-03T11:52:50;95130.84;;;6.88;100.00
20119;BME280;10220;42.716;23.306;2023-03-03T11:55:30;95128.56;;;7.34;100.00
20119;BME280;10220;42.716;23.306;2023-03-03T12:04:21;95109.16;;;7.59;100.00
20119;BME280;10220;42.716;23.306;2023-03-03T12:12:26;95126.81;;;7.62;100.00
20119;BME280;10220;42.716;23.306;2023-03-03T12:15:14;95132.16;;;6.98;100.00
20119;BME280;10220;42.716;23.306;2023-03-03T12:20:41;95134.28;;;6.95;100.00
20119;BME280;10220;42.716;23.306;2023-03-03T12:26:35;95131.75;;;6.80;100.00
20119;BME280;10220;42.716;23.306;2023-03-03T12:29:38;95116.59;;;7.06;100.00
20119;BME280;10220;42.716;23.306;2023-03-03T12:48:58;95101.81;;;6.58;100.00
20119;BME280;10220;42.716;23.306;2023-03-03T12:51:35;95129.56;;;6.63;100.00
20119;BME280;10220;42.716;23.306;2023-03-03T12:54:32;95138.84;;;6.29;100.00
20119;BME280;10220;42.716;23.306;2023-03-03T12:57:39;95122.94;;;6.40;100.00
20119;BME280;10220;42.716;23.306;2023-03-03T13:02:42;95123.13;;;6.38;100.00
20119;BME280;10220;42.716;23.306;2023-03-03T13:05:29;95121.69;;;6.50;100.00
20119;BME280;10220;42.716;23.306;2023-03-03T13:10:45;95122.28;;;6.81;100.00
20119;BME280;10220;42.716;23.306;2023-03-03T13:16:16;95113.13;;;6.29;100.00
20119;BME280;10220;42.716;23.306;2023-03-03T13:18:59;95117.47;;;6.78;100.00
20119;BME280;10220;42.716;23.306;2023-03-03T13:21:35;95114.38;;;7.03;100.00
20119;BME280;10220;42.716;23.306;2023-03-03T13:26:54;95095.94;;;6.64;100.00
20119;BME280;10220;42.716;23.306;2023-03-03T13:29:49;95105.03;;;6.81;100.00
20119;BME280;10220;42.716;23.306;2023-03-03T13:32:30;95099.06;;;7.37;100.00
20119;BME280;10220;42.716;23.306;2023-03-03T13:35:00;95105.63;;;7.18;100.00
20119;BME280;10220;42.716;23.306;2023-03-03T13:37:44;95101.41;;;7.32;100.00
20119;BME280;10220;42.716;23.306;2023-03-03T13:40:35;95091.38;;;7.64;100.00
20119;BME280;10220;42.716;23.306;2023-03-03T13:43:14;95104.41;;;7.83;100.00
20119;BME280;10220;42.716;23.306;2023-03-03T13:46:01;95100.91;;;7.22;100.00
20119;BME280;10220;42.716;23.306;2023-03-03T13:48:44;95102.44;;;7.16;100.00
20119;BME280;10220;42.716;23.306;2023-03-03T14:00:34;95088.41;;;7.94;100.00
20119;BME280;10220;42.716;23.306;2023-03-03T14:03:31;95100.13;;;8.24;100.00
20119;BME280;10220;42.716;23.306;2023-03-03T14:06:07;95102.50;;;7.98;100.00
20119;BME280;10220;42.716;23.306;2023-03-03T14:08:59;95105.38;;;7.82;100.00
20119;BME280;10220;42.716;23.306;2023-03-03T14:11:32;95107.91;;;7.76;100.00
20119;BME280;10220;42.716;23.306;2023-03-03T14:16:51;95099.56;;;8.81;100.00
20119;BME280;10220;42.716;23.306;2023-03-03T14:19:26;95097.72;;;9.22;100.00
20119;BME280;10220;42.716;23.306;2023-03-03T14:25:05;95086.63;;;8.62;100.00
20119;BME280;10220;42.716;23.306;2023-03-03T14:28:03;95089.09;;;8.96;100.00
20119;BME280;10220;42.716;23.306;2023-03-03T14:30:32;95090.91;;;8.49;100.00
20119;BME280;10220;42.716;23.306;2023-03-03T14:35:40;95089.91;;;7.82;100.00
20119;BME280;10220;42.716;23.306;2023-03-03T14:38:18;95105.47;;;7.68;100.00
20119;BME280;10220;42.716;23.306;2023-03-03T14:40:45;95097.22;;;7.79;100.00
20119;BME280;10220;42.716;23.306;2023-03-03T14:43:35;95086.66;;;7.67;100.00
20119;BME280;10220;42.716;23.306;2023-03-03T14:48:54;95082.94;;;8.10;100.00
20119;BME280;10220;42.716;23.306;2023-03-03T14:51:47;95088.97;;;8.57;100.00
20119;BME280;10220;42.716;23.306;2023-03-03T14:54:26;95086.78;;;8.20;100.00
20119;BME280;10220;42.716;23.306;2023-03-03T14:59:25;95093.06;;;7.51;100.00
20119;BME280;10220;42.716;23.306;2023-03-03T15:04:27;95081.66;;;7.66;100.00
20119;BME280;10220;42.716;23.306;2023-03-03T15:06:55;95074.47;;;7.34;100.00
20119;BME280;10220;42.716;23.306;2023-03-03T15:09:26;95090.50;;;7.09;100.00
20119;BME280;10220;42.716;23.306;2023-03-03T15:11:56;95077.06;;;6.93;100.00
20119;BME280;10220;42.716;23.306;2023-03-03T15:14:36;95097.66;;;6.93;100.00
20119;BME280;10220;42.716;23.306;2023-03-03T15:17:18;95081.41;;;6.71;100.00
20119;BME280;10220;42.716;23.306;2023-03-03T15:20:17;95090.50;;;6.74;100.00
20119;BME280;10220;42.716;23.306;2023-03-03T15:23:03;95083.53;;;6.68;100.00
20119;BME280;10220;42.716;23.306;2023-03-03T15:25:35;95080.91;;;6.82;100.00
20119;BME280;10220;42.716;23.306;2023-03-03T15:28:24;95080.41;;;6.93;100.00
20119;BME280;10220;42.716;23.306;2023-03-03T15:36:43;95083.81;;;7.62;100.00
20119;BME280;10220;42.716;23.306;2023-03-03T15:39:57;95080.38;;;7.56;100.00
20119;BME280;10220;42.716;23.306;2023-03-03T15:42:47;95081.19;;;7.83;100.00
20119;BME280;10220;42.716;23.306;2023-03-03T15:45:40;95077.38;;;7.25;100.00
20119;BME280;10220;42.716;23.306;2023-03-03T15:53:57;95104.75;;;6.91;100.00
20119;BME280;10220;42.716;23.306;2023-03-03T15:56:39;95102.91;;;6.85;100.00
20119;BME280;10220;42.716;23.306;2023-03-03T16:02:02;95067.97;;;8.20;100.00
20119;BME280;10220;42.716;23.306;2023-03-03T16:04:37;95099.44;;;7.34;100.00
20119;BME280;10220;42.716;23.306;2023-03-03T16:09:53;95098.53;;;8.23;100.00
20119;BME280;10220;42.716;23.306;2023-03-03T16:18:40;95121.56;;;7.28;100.00
20119;BME280;10220;42.716;23.306;2023-03-03T16:31:59;95123.19;;;6.59;100.00
20119;BME280;10220;42.716;23.306;2023-03-03T16:37:11;95126.91;;;6.56;100.00
20119;BME280;10220;42.716;23.306;2023-03-03T16:39:52;95127.97;;;6.62;100.00
20119;BME280;10220;42.716;23.306;2023-03-03T16:47:31;95137.34;;;6.84;100.00
20119;BME280;10220;42.716;23.306;2023-03-03T16:58:33;95156.38;;;6.40;100.00
20119;BME280;10220;42.716;23.306;2023-03-03T17:01:16;95138.00;;;6.42;100.00
20119;BME280;10220;42.716;23.306;2023-03-03T17:04:12;95160.91;;;6.66;100.00
20119;BME280;10220;42.716;23.306;2023-03-03T17:06:53;95161.50;;;6.68;100.00
20119;BME280;10220;42.716;23.306;2023-03-03T17:09:25;95151.41;;;6.67;100.00
20119;BME280;10220;42.716;23.306;2023-03-03T17:20:36;95165.06;;;6.67;100.00